sensor_id;sensor_type;location;lat;lon;timestamp;P1;durP1;ratioP1;P2;durP2;ratioP2
14470;SDS011;7321;50.802;4.336;2023-03-24T00:02:22;2.97;;;2.50;;
14470;SDS011;7321;50.802;4.336;2023-03-24T00:04:49;4.37;;;2.80;;
14470;SDS011;7321;50.802;4.336;2023-03-24T00:07:17;2.77;;;2.40;;
14470;SDS011;7321;50.802;4.336;2023-03-24T00:09:46;3.17;;;2.40;;
14470;SDS011;7321;50.802;4.336;2023-03-24T00:12:12;4.23;;;2.90;;
14470;SDS011;7321;50.802;4.336;2023-03-24T00:14:42;3.17;;;2.60;;
14470;SDS011;7321;50.802;4.336;2023-03-24T00:17:10;3.13;;;2.83;;
14470;SDS011;7321;50.802;4.336;2023-03-24T00:19:42;3.17;;;2.53;;
14470;SDS011;7321;50.802;4.336;2023-03-24T00:22:09;3.43;;;2.47;;
14470;SDS011;7321;50.802;4.336;2023-03-24T00:24:39;2.90;;;2.47;;
14470;SDS011;7321;50.802;4.336;2023-03-24T00:27:05;2.90;;;2.60;;
14470;SDS011;7321;50.802;4.336;2023-03-24T00:29:31;3.13;;;2.50;;
14470;SDS011;7321;50.802;4.336;2023-03-24T00:31:57;3.67;;;2.73;;
14470;SDS011;7321;50.802;4.336;2023-03-24T00:34:24;3.07;;;2.70;;
14470;SDS011;7321;50.802;4.336;2023-03-24T00:36:50;3.00;;;2.70;;
14470;SDS011;7321;50.802;4.336;2023-03-24T00:39:16;3.30;;;2.60;;
14470;SDS011;7321;50.802;4.336;2023-03-24T00:41:43;2.40;;;2.20;;
14470;SDS011;7321;50.802;4.336;2023-03-24T00:44:10;4.17;;;2.87;;
14470;SDS011;7321;50.802;4.336;2023-03-24T00:46:48;3.23;;;2.40;;
14470;SDS011;7321;50.802;4.336;2023-03-24T00:49:20;3.33;;;2.37;;
14470;SDS011;7321;50.802;4.336;2023-03-24T00:52:24;3.73;;;2.43;;
14470;SDS011;7321;50.802;4.336;2023-03-24T00:54:51;2.37;;;2.10;;
14470;SDS011;7321;50.802;4.336;2023-03-24T00:57:22;3.97;;;2.40;;
14470;SDS011;7321;50.802;4.336;2023-03-24T00:59:50;2.53;;;2.33;;
14470;SDS011;7321;50.802;4.336;2023-03-24T01:02:19;3.70;;;2.40;;
14470;SDS011;7321;50.802;4.336;2023-03-24T01:04:54;7.90;;;2.60;;
14470;SDS011;7321;50.802;4.336;2023-03-24T01:07:23;2.67;;;2.40;;
14470;SDS011;7321;50.802;4.336;2023-03-24T01:09:50;2.93;;;2.30;;
14470;SDS011;7321;50.802;4.336;2023-03-24T01:12:25;5.03;;;2.60;;
14470;SDS011;7321;50.802;4.336;2023-03-24T01:14:56;2.50;;;2.30;;
14470;SDS011;7321;50.802;4.336;2023-03-24T01:17:24;2.80;;;2.60;;
14470;SDS011;7321;50.802;4.336;2023-03-24T01:19:54;3.17;;;2.40;;
14470;SDS011;7321;50.802;4.336;2023-03-24T01:22:20;3.40;;;2.47;;
14470;SDS011;7321;50.802;4.336;2023-03-24T01:24:47;5.73;;;2.43;;
14470;SDS011;7321;50.802;4.336;2023-03-24T01:27:13;3.37;;;2.40;;
14470;SDS011;7321;50.802;4.336;2023-03-24T01:29:40;2.40;;;2.20;;
14470;SDS011;7321;50.802;4.336;2023-03-24T01:32:06;3.30;;;2.70;;
14470;SDS011;7321;50.802;4.336;2023-03-24T01:34:32;2.30;;;2.10;;
14470;SDS011;7321;50.802;4.336;2023-03-24T01:36:59;2.97;;;2.63;;
14470;SDS011;7321;50.802;4.336;2023-03-24T01:39:25;3.27;;;2.63;;
14470;SDS011;7321;50.802;4.336;2023-03-24T01:41:51;2.50;;;2.27;;
14470;SDS011;7321;50.802;4.336;2023-03-24T01:44:22;2.83;;;2.00;;
14470;SDS011;7321;50.802;4.336;2023-03-24T01:46:52;3.53;;;2.67;;
14470;SDS011;7321;50.802;4.336;2023-03-24T01:49:18;4.03;;;3.13;;
14470;SDS011;7321;50.802;4.336;2023-03-24T01:51:46;3.00;;;2.70;;
14470;SDS011;7321;50.802;4.336;2023-03-24T01:54:32;3.97;;;3.10;;
14470;SDS011;7321;50.802;4.336;2023-03-24T01:57:13;4.27;;;3.40;;
14470;SDS011;7321;50.802;4.336;2023-03-24T01:59:53;4.57;;;3.33;;
14470;SDS011;7321;50.802;4.336;2023-03-24T02:02:21;3.97;;;3.50;;
14470;SDS011;7321;50.802;4.336;2023-03-24T02:04:48;3.63;;;2.80;;
14470;SDS011;7321;50.802;4.336;2023-03-24T02:10:17;3.23;;;2.37;;
14470;SDS011;7321;50.802;4.336;2023-03-24T02:12:45;4.17;;;2.30;;
14470;SDS011;7321;50.802;4.336;2023-03-24T02:15:11;2.93;;;2.67;;
14470;SDS011;7321;50.802;4.336;2023-03-24T02:17:57;3.10;;;2.87;;
14470;SDS011;7321;50.802;4.336;2023-03-24T02:26:19;1.90;;;1.67;;
14470;SDS011;7321;50.802;4.336;2023-03-24T02:40:31;2.77;;;1.10;;
14470;SDS011;7321;50.802;4.336;2023-03-24T02:45:59;2.20;;;0.83;;
14470;SDS011;7321;50.802;4.336;2023-03-24T02:51:35;1.57;;;0.90;;
14470;SDS011;7321;50.802;4.336;2023-03-24T02:54:12;2.77;;;1.33;;
14470;SDS011;7321;50.802;4.336;2023-03-24T02:59:53;2.20;;;1.00;;
14470;SDS011;7321;50.802;4.336;2023-03-24T03:02:47;3.10;;;0.97;;
14470;SDS011;7321;50.802;4.336;2023-03-24T03:05:27;2.17;;;1.03;;
14470;SDS011;7321;50.802;4.336;2023-03-24T03:08:12;1.53;;;1.00;;
14470;SDS011;7321;50.802;4.336;2023-03-24T03:10:42;2.13;;;1.07;;
14470;SDS011;7321;50.802;4.336;2023-03-24T03:13:15;1.67;;;0.70;;
14470;SDS011;7321;50.802;4.336;2023-03-24T03:15:47;5.63;;;1.53;;
14470;SDS011;7321;50.802;4.336;2023-03-24T03:18:18;2.43;;;1.13;;
14470;SDS011;7321;50.802;4.336;2023-03-24T03:20:57;3.10;;;1.37;;
14470;SDS011;7321;50.802;4.336;2023-03-24T03:23:30;5.50;;;1.50;;
14470;SDS011;7321;50.802;4.336;2023-03-24T03:26:12;4.50;;;1.37;;
14470;SDS011;7321;50.802;4.336;2023-03-24T03:28:42;4.20;;;1.37;;
14470;SDS011;7321;50.802;4.336;2023-03-24T03:31:14;4.70;;;1.43;;
14470;SDS011;7321;50.802;4.336;2023-03-24T03:33:49;5.43;;;1.50;;
14470;SDS011;7321;50.802;4.336;2023-03-24T03:39:15;7.30;;;2.20;;
14470;SDS011;7321;50.802;4.336;2023-03-24T03:41:48;4.23;;;1.53;;
14470;SDS011;7321;50.802;4.336;2023-03-24T03:44:14;3.27;;;1.43;;
14470;SDS011;7321;50.802;4.336;2023-03-24T03:46:40;4.57;;;1.23;;
14470;SDS011;7321;50.802;4.336;2023-03-24T03:49:06;4.47;;;1.60;;
14470;SDS011;7321;50.802;4.336;2023-03-24T03:51:33;5.63;;;1.70;;
14470;SDS011;7321;50.802;4.336;2023-03-24T03:54:00;6.33;;;1.70;;
14470;SDS011;7321;50.802;4.336;2023-03-24T03:56:30;9.70;;;2.07;;
14470;SDS011;7321;50.802;4.336;2023-03-24T03:58:59;6.17;;;1.77;;
14470;SDS011;7321;50.802;4.336;2023-03-24T04:01:26;7.07;;;1.87;;
14470;SDS011;7321;50.802;4.336;2023-03-24T04:12:04;8.00;;;3.20;;
14470;SDS011;7321;50.802;4.336;2023-03-24T04:28:02;9.60;;;3.03;;
14470;SDS011;7321;50.802;4.336;2023-03-24T04:30:43;6.47;;;2.67;;
14470;SDS011;7321;50.802;4.336;2023-03-24T04:35:58;11.40;;;3.00;;
14470;SDS011;7321;50.802;4.336;2023-03-24T04:38:30;10.13;;;4.20;;
14470;SDS011;7321;50.802;4.336;2023-03-24T04:41:00;8.60;;;3.23;;
14470;SDS011;7321;50.802;4.336;2023-03-24T04:43:30;7.53;;;3.60;;
14470;SDS011;7321;50.802;4.336;2023-03-24T04:46:00;13.13;;;3.97;;
14470;SDS011;7321;50.802;4.336;2023-03-24T04:48:28;11.40;;;3.27;;
14470;SDS011;7321;50.802;4.336;2023-03-24T04:51:01;8.20;;;3.40;;
14470;SDS011;7321;50.802;4.336;2023-03-24T04:53:28;11.53;;;3.83;;
14470;SDS011;7321;50.802;4.336;2023-03-24T04:58:30;9.27;;;3.20;;
14470;SDS011;7321;50.802;4.336;2023-03-24T05:00:56;9.53;;;3.73;;
14470;SDS011;7321;50.802;4.336;2023-03-24T05:03:23;12.63;;;3.97;;
14470;SDS011;7321;50.802;4.336;2023-03-24T05:05:50;10.77;;;3.37;;
14470;SDS011;7321;50.802;4.336;2023-03-24T05:08:16;12.40;;;3.00;;
14470;SDS011;7321;50.802;4.336;2023-03-24T05:10:43;8.60;;;3.33;;
14470;SDS011;7321;50.802;4.336;2023-03-24T05:13:10;8.07;;;2.70;;
14470;SDS011;7321;50.802;4.336;2023-03-24T05:15:37;11.03;;;3.00;;
14470;SDS011;7321;50.802;4.336;2023-03-24T05:18:03;7.80;;;2.37;;
14470;SDS011;7321;50.802;4.336;2023-03-24T05:20:29;12.17;;;2.80;;
14470;SDS011;7321;50.802;4.336;2023-03-24T05:22:55;9.43;;;2.60;;
14470;SDS011;7321;50.802;4.336;2023-03-24T05:25:21;12.63;;;3.17;;
14470;SDS011;7321;50.802;4.336;2023-03-24T05:27:47;9.60;;;2.50;;
14470;SDS011;7321;50.802;4.336;2023-03-24T05:30:13;8.27;;;2.10;;
14470;SDS011;7321;50.802;4.336;2023-03-24T05:32:40;11.37;;;3.60;;
14470;SDS011;7321;50.802;4.336;2023-03-24T05:35:06;7.63;;;2.40;;
14470;SDS011;7321;50.802;4.336;2023-03-24T05:37:33;7.77;;;2.23;;
14470;SDS011;7321;50.802;4.336;2023-03-24T05:39:59;13.47;;;2.67;;
14470;SDS011;7321;50.802;4.336;2023-03-24T05:42:24;7.83;;;2.53;;
14470;SDS011;7321;50.802;4.336;2023-03-24T05:44:50;11.33;;;2.73;;
14470;SDS011;7321;50.802;4.336;2023-03-24T05:47:16;9.17;;;2.33;;
14470;SDS011;7321;50.802;4.336;2023-03-24T05:49:47;8.33;;;2.67;;
14470;SDS011;7321;50.802;4.336;2023-03-24T05:52:14;5.10;;;1.93;;
14470;SDS011;7321;50.802;4.336;2023-03-24T05:54:40;9.60;;;2.47;;
14470;SDS011;7321;50.802;4.336;2023-03-24T05:57:07;7.30;;;2.73;;
14470;SDS011;7321;50.802;4.336;2023-03-24T05:59:38;9.93;;;2.67;;
14470;SDS011;7321;50.802;4.336;2023-03-24T06:02:04;10.23;;;2.50;;
14470;SDS011;7321;50.802;4.336;2023-03-24T06:04:30;10.83;;;2.60;;
14470;SDS011;7321;50.802;4.336;2023-03-24T06:06:56;7.23;;;2.77;;
14470;SDS011;7321;50.802;4.336;2023-03-24T06:09:30;10.90;;;2.83;;
14470;SDS011;7321;50.802;4.336;2023-03-24T06:12:02;10.53;;;2.80;;
14470;SDS011;7321;50.802;4.336;2023-03-24T06:14:29;11.93;;;3.27;;
14470;SDS011;7321;50.802;4.336;2023-03-24T06:16:55;8.90;;;2.73;;
14470;SDS011;7321;50.802;4.336;2023-03-24T06:19:26;9.70;;;2.97;;
14470;SDS011;7321;50.802;4.336;2023-03-24T06:21:55;9.07;;;2.93;;
14470;SDS011;7321;50.802;4.336;2023-03-24T06:24:24;7.83;;;2.70;;
14470;SDS011;7321;50.802;4.336;2023-03-24T06:26:51;6.00;;;2.20;;
14470;SDS011;7321;50.802;4.336;2023-03-24T06:29:17;7.87;;;3.00;;
14470;SDS011;7321;50.802;4.336;2023-03-24T06:31:43;9.17;;;2.20;;
14470;SDS011;7321;50.802;4.336;2023-03-24T06:34:10;8.03;;;2.30;;
14470;SDS011;7321;50.802;4.336;2023-03-24T06:36:36;9.60;;;3.40;;
14470;SDS011;7321;50.802;4.336;2023-03-24T06:39:02;10.40;;;2.83;;
14470;SDS011;7321;50.802;4.336;2023-03-24T06:41:30;9.00;;;3.13;;
14470;SDS011;7321;50.802;4.336;2023-03-24T06:43:56;9.50;;;3.23;;
14470;SDS011;7321;50.802;4.336;2023-03-24T06:46:22;9.60;;;2.47;;
14470;SDS011;7321;50.802;4.336;2023-03-24T06:48:48;10.57;;;2.83;;
14470;SDS011;7321;50.802;4.336;2023-03-24T06:51:14;8.60;;;2.97;;
14470;SDS011;7321;50.802;4.336;2023-03-24T06:53:41;8.10;;;3.17;;
14470;SDS011;7321;50.802;4.336;2023-03-24T06:56:09;9.97;;;2.77;;
14470;SDS011;7321;50.802;4.336;2023-03-24T06:58:44;9.63;;;3.00;;
14470;SDS011;7321;50.802;4.336;2023-03-24T07:01:10;14.10;;;3.73;;
14470;SDS011;7321;50.802;4.336;2023-03-24T07:03:37;8.93;;;3.07;;
14470;SDS011;7321;50.802;4.336;2023-03-24T07:06:03;9.47;;;2.83;;
14470;SDS011;7321;50.802;4.336;2023-03-24T07:08:31;9.80;;;3.03;;
14470;SDS011;7321;50.802;4.336;2023-03-24T07:10:58;9.10;;;2.90;;
14470;SDS011;7321;50.802;4.336;2023-03-24T07:13:24;7.43;;;2.73;;
14470;SDS011;7321;50.802;4.336;2023-03-24T07:15:50;9.27;;;2.80;;
14470;SDS011;7321;50.802;4.336;2023-03-24T07:18:16;11.20;;;2.93;;
14470;SDS011;7321;50.802;4.336;2023-03-24T07:20:43;7.47;;;3.00;;
14470;SDS011;7321;50.802;4.336;2023-03-24T07:23:09;7.30;;;2.60;;
14470;SDS011;7321;50.802;4.336;2023-03-24T07:25:36;8.73;;;2.83;;
14470;SDS011;7321;50.802;4.336;2023-03-24T07:28:03;8.63;;;3.30;;
14470;SDS011;7321;50.802;4.336;2023-03-24T07:30:29;12.13;;;2.70;;
14470;SDS011;7321;50.802;4.336;2023-03-24T07:32:55;7.83;;;2.87;;
14470;SDS011;7321;50.802;4.336;2023-03-24T07:35:21;8.57;;;3.03;;
14470;SDS011;7321;50.802;4.336;2023-03-24T07:37:47;6.93;;;2.70;;
14470;SDS011;7321;50.802;4.336;2023-03-24T07:40:14;10.03;;;3.20;;
14470;SDS011;7321;50.802;4.336;2023-03-24T07:42:41;9.00;;;3.03;;
14470;SDS011;7321;50.802;4.336;2023-03-24T07:45:08;9.33;;;2.73;;
14470;SDS011;7321;50.802;4.336;2023-03-24T07:47:36;9.53;;;3.30;;
14470;SDS011;7321;50.802;4.336;2023-03-24T07:50:03;7.43;;;2.57;;
14470;SDS011;7321;50.802;4.336;2023-03-24T07:52:37;9.97;;;2.77;;
14470;SDS011;7321;50.802;4.336;2023-03-24T07:55:05;8.80;;;3.17;;
14470;SDS011;7321;50.802;4.336;2023-03-24T07:57:34;8.67;;;3.17;;
14470;SDS011;7321;50.802;4.336;2023-03-24T08:00:04;11.50;;;2.70;;
14470;SDS011;7321;50.802;4.336;2023-03-24T08:02:49;11.53;;;3.00;;
14470;SDS011;7321;50.802;4.336;2023-03-24T08:05:17;9.40;;;2.70;;
14470;SDS011;7321;50.802;4.336;2023-03-24T08:07:47;9.00;;;2.60;;
14470;SDS011;7321;50.802;4.336;2023-03-24T08:10:18;9.53;;;2.87;;
14470;SDS011;7321;50.802;4.336;2023-03-24T08:12:46;8.53;;;2.60;;
14470;SDS011;7321;50.802;4.336;2023-03-24T08:15:12;10.10;;;2.63;;
14470;SDS011;7321;50.802;4.336;2023-03-24T08:17:38;10.70;;;2.47;;
14470;SDS011;7321;50.802;4.336;2023-03-24T08:20:07;11.93;;;2.80;;
14470;SDS011;7321;50.802;4.336;2023-03-24T08:22:38;3.60;;;2.03;;
14470;SDS011;7321;50.802;4.336;2023-03-24T08:25:06;8.93;;;2.90;;
14470;SDS011;7321;50.802;4.336;2023-03-24T08:27:34;10.90;;;2.70;;
14470;SDS011;7321;50.802;4.336;2023-03-24T08:30:03;9.53;;;2.40;;
14470;SDS011;7321;50.802;4.336;2023-03-24T08:32:34;10.40;;;3.00;;
14470;SDS011;7321;50.802;4.336;2023-03-24T08:35:00;6.63;;;2.67;;
14470;SDS011;7321;50.802;4.336;2023-03-24T08:37:29;12.73;;;3.27;;
14470;SDS011;7321;50.802;4.336;2023-03-24T08:39:55;13.13;;;3.00;;
14470;SDS011;7321;50.802;4.336;2023-03-24T08:42:23;8.63;;;2.80;;
14470;SDS011;7321;50.802;4.336;2023-03-24T08:44:50;9.67;;;2.67;;
14470;SDS011;7321;50.802;4.336;2023-03-24T08:47:16;7.40;;;2.57;;
14470;SDS011;7321;50.802;4.336;2023-03-24T08:49:42;7.90;;;2.57;;
14470;SDS011;7321;50.802;4.336;2023-03-24T08:52:08;12.00;;;2.93;;
14470;SDS011;7321;50.802;4.336;2023-03-24T08:54:34;7.50;;;2.40;;
14470;SDS011;7321;50.802;4.336;2023-03-24T08:57:00;9.80;;;3.00;;
14470;SDS011;7321;50.802;4.336;2023-03-24T08:59:26;9.23;;;2.70;;
14470;SDS011;7321;50.802;4.336;2023-03-24T09:01:52;10.97;;;3.37;;
14470;SDS011;7321;50.802;4.336;2023-03-24T09:04:17;7.80;;;2.50;;
14470;SDS011;7321;50.802;4.336;2023-03-24T09:06:43;8.63;;;2.80;;
14470;SDS011;7321;50.802;4.336;2023-03-24T09:09:09;8.70;;;2.60;;
14470;SDS011;7321;50.802;4.336;2023-03-24T09:11:35;13.97;;;2.73;;
14470;SDS011;7321;50.802;4.336;2023-03-24T09:14:01;11.53;;;3.80;;
14470;SDS011;7321;50.802;4.336;2023-03-24T09:16:27;7.10;;;2.60;;
14470;SDS011;7321;50.802;4.336;2023-03-24T09:18:52;10.17;;;3.37;;
14470;SDS011;7321;50.802;4.336;2023-03-24T09:21:18;11.90;;;3.27;;
14470;SDS011;7321;50.802;4.336;2023-03-24T09:23:45;5.87;;;2.30;;
14470;SDS011;7321;50.802;4.336;2023-03-24T09:26:11;9.70;;;2.90;;
14470;SDS011;7321;50.802;4.336;2023-03-24T09:28:36;8.60;;;2.43;;
14470;SDS011;7321;50.802;4.336;2023-03-24T09:31:03;13.50;;;2.67;;
14470;SDS011;7321;50.802;4.336;2023-03-24T09:33:30;8.77;;;2.70;;
14470;SDS011;7321;50.802;4.336;2023-03-24T09:35:59;12.93;;;2.77;;
14470;SDS011;7321;50.802;4.336;2023-03-24T09:38:26;9.63;;;2.70;;
14470;SDS011;7321;50.802;4.336;2023-03-24T09:40:54;10.37;;;2.60;;
14470;SDS011;7321;50.802;4.336;2023-03-24T09:45:57;7.20;;;2.03;;
14470;SDS011;7321;50.802;4.336;2023-03-24T09:50:56;8.87;;;4.20;;
14470;SDS011;7321;50.802;4.336;2023-03-24T09:56:47;8.33;;;2.67;;
14470;SDS011;7321;50.802;4.336;2023-03-24T10:02:00;7.40;;;2.47;;
14470;SDS011;7321;50.802;4.336;2023-03-24T10:04:28;8.83;;;2.57;;
14470;SDS011;7321;50.802;4.336;2023-03-24T10:07:18;11.33;;;2.90;;
14470;SDS011;7321;50.802;4.336;2023-03-24T10:10:08;8.57;;;2.53;;
14470;SDS011;7321;50.802;4.336;2023-03-24T10:12:51;8.33;;;2.17;;
14470;SDS011;7321;50.802;4.336;2023-03-24T10:15:40;9.47;;;4.60;;
14470;SDS011;7321;50.802;4.336;2023-03-24T10:18:29;10.23;;;3.00;;
14470;SDS011;7321;50.802;4.336;2023-03-24T10:21:16;7.17;;;2.67;;
14470;SDS011;7321;50.802;4.336;2023-03-24T10:29:18;6.60;;;2.33;;
14470;SDS011;7321;50.802;4.336;2023-03-24T10:32:24;8.27;;;2.43;;
14470;SDS011;7321;50.802;4.336;2023-03-24T10:34:52;11.03;;;3.20;;
14470;SDS011;7321;50.802;4.336;2023-03-24T10:37:22;9.00;;;2.67;;
14470;SDS011;7321;50.802;4.336;2023-03-24T10:39:48;7.97;;;2.57;;
14470;SDS011;7321;50.802;4.336;2023-03-24T10:42:22;11.23;;;2.50;;
14470;SDS011;7321;50.802;4.336;2023-03-24T10:44:50;7.53;;;2.50;;
14470;SDS011;7321;50.802;4.336;2023-03-24T10:47:23;4.90;;;2.47;;
14470;SDS011;7321;50.802;4.336;2023-03-24T10:49:53;9.20;;;2.43;;
14470;SDS011;7321;50.802;4.336;2023-03-24T10:52:25;9.23;;;2.60;;
14470;SDS011;7321;50.802;4.336;2023-03-24T10:54:56;6.57;;;2.93;;
14470;SDS011;7321;50.802;4.336;2023-03-24T10:57:23;6.67;;;2.57;;
14470;SDS011;7321;50.802;4.336;2023-03-24T11:02:22;10.57;;;2.57;;
14470;SDS011;7321;50.802;4.336;2023-03-24T11:04:56;6.97;;;2.23;;
14470;SDS011;7321;50.802;4.336;2023-03-24T11:10:13;6.33;;;2.17;;
14470;SDS011;7321;50.802;4.336;2023-03-24T11:12:42;9.53;;;2.00;;
14470;SDS011;7321;50.802;4.336;2023-03-24T11:15:30;7.43;;;2.57;;
14470;SDS011;7321;50.802;4.336;2023-03-24T11:18:13;7.90;;;2.50;;
14470;SDS011;7321;50.802;4.336;2023-03-24T11:23:23;8.60;;;2.20;;
14470;SDS011;7321;50.802;4.336;2023-03-24T11:26:17;11.83;;;2.60;;
14470;SDS011;7321;50.802;4.336;2023-03-24T11:29:13;9.23;;;2.57;;
14470;SDS011;7321;50.802;4.336;2023-03-24T11:31:49;7.17;;;2.20;;
14470;SDS011;7321;50.802;4.336;2023-03-24T11:34:19;8.47;;;2.70;;
14470;SDS011;7321;50.802;4.336;2023-03-24T11:36:53;9.87;;;2.50;;
14470;SDS011;7321;50.802;4.336;2023-03-24T11:39:22;8.67;;;2.60;;
14470;SDS011;7321;50.802;4.336;2023-03-24T11:41:51;7.97;;;2.70;;
14470;SDS011;7321;50.802;4.336;2023-03-24T11:49:55;7.23;;;2.40;;
14470;SDS011;7321;50.802;4.336;2023-03-24T11:52:30;8.77;;;2.40;;
14470;SDS011;7321;50.802;4.336;2023-03-24T11:55:17;7.97;;;2.20;;
14470;SDS011;7321;50.802;4.336;2023-03-24T11:57:55;6.90;;;2.13;;
14470;SDS011;7321;50.802;4.336;2023-03-24T12:00:30;7.40;;;2.40;;
14470;SDS011;7321;50.802;4.336;2023-03-24T12:11:19;7.30;;;3.13;;
14470;SDS011;7321;50.802;4.336;2023-03-24T12:14:04;10.00;;;2.40;;
14470;SDS011;7321;50.802;4.336;2023-03-24T12:19:18;11.77;;;2.23;;
14470;SDS011;7321;50.802;4.336;2023-03-24T12:22:04;9.77;;;2.40;;
14470;SDS011;7321;50.802;4.336;2023-03-24T12:42:08;9.95;;;2.75;;
14470;SDS011;7321;50.802;4.336;2023-03-24T12:55:29;6.87;;;2.30;;
14470;SDS011;7321;50.802;4.336;2023-03-24T13:03:57;7.23;;;2.00;;
14470;SDS011;7321;50.802;4.336;2023-03-24T13:06:14;6.33;;;2.23;;
14470;SDS011;7321;50.802;4.336;2023-03-24T13:08:53;9.27;;;2.40;;
14470;SDS011;7321;50.802;4.336;2023-03-24T13:14:48;4.83;;;1.30;;
14470;SDS011;7321;50.802;4.336;2023-03-24T13:17:23;5.37;;;1.60;;
14470;SDS011;7321;50.802;4.336;2023-03-24T13:19:56;4.87;;;1.80;;
14470;SDS011;7321;50.802;4.336;2023-03-24T13:22:24;5.97;;;1.40;;
14470;SDS011;7321;50.802;4.336;2023-03-24T13:24:52;4.13;;;1.40;;
14470;SDS011;7321;50.802;4.336;2023-03-24T13:27:37;4.13;;;1.53;;
14470;SDS011;7321;50.802;4.336;2023-03-24T13:32:44;3.23;;;1.50;;
14470;SDS011;7321;50.802;4.336;2023-03-24T13:38:34;5.90;;;1.63;;
14470;SDS011;7321;50.802;4.336;2023-03-24T13:41:05;4.57;;;1.73;;
14470;SDS011;7321;50.802;4.336;2023-03-24T13:43:35;5.30;;;1.60;;
14470;SDS011;7321;50.802;4.336;2023-03-24T13:48:41;3.50;;;1.60;;
14470;SDS011;7321;50.802;4.336;2023-03-24T13:51:17;5.60;;;1.70;;
14470;SDS011;7321;50.802;4.336;2023-03-24T13:54:03;5.00;;;2.40;;
14470;SDS011;7321;50.802;4.336;2023-03-24T13:59:39;7.23;;;1.90;;
14470;SDS011;7321;50.802;4.336;2023-03-24T14:13:01;6.00;;;1.60;;
14470;SDS011;7321;50.802;4.336;2023-03-24T14:15:32;7.07;;;1.77;;
14470;SDS011;7321;50.802;4.336;2023-03-24T14:23:24;7.20;;;1.83;;
14470;SDS011;7321;50.802;4.336;2023-03-24T14:26:13;5.40;;;2.23;;
14470;SDS011;7321;50.802;4.336;2023-03-24T14:28:43;6.70;;;2.03;;
14470;SDS011;7321;50.802;4.336;2023-03-24T14:36:39;4.57;;;1.60;;
14470;SDS011;7321;50.802;4.336;2023-03-24T14:41:56;3.70;;;1.70;;
14470;SDS011;7321;50.802;4.336;2023-03-24T14:45:05;7.13;;;2.10;;
14470;SDS011;7321;50.802;4.336;2023-03-24T14:47:18;2.40;;;1.13;;
14470;SDS011;7321;50.802;4.336;2023-03-24T14:49:55;4.53;;;1.50;;
14470;SDS011;7321;50.802;4.336;2023-03-24T14:52:33;3.57;;;1.30;;
14470;SDS011;7321;50.802;4.336;2023-03-24T14:55:05;3.47;;;1.10;;
14470;SDS011;7321;50.802;4.336;2023-03-24T14:57:39;4.90;;;1.70;;
14470;SDS011;7321;50.802;4.336;2023-03-24T15:00:07;3.43;;;1.20;;
14470;SDS011;7321;50.802;4.336;2023-03-24T15:03:35;3.67;;;0.90;;
14470;SDS011;7321;50.802;4.336;2023-03-24T15:05:50;3.20;;;0.73;;
14470;SDS011;7321;50.802;4.336;2023-03-24T15:08:16;4.00;;;2.07;;
14470;SDS011;7321;50.802;4.336;2023-03-24T15:13:38;5.50;;;1.57;;
14470;SDS011;7321;50.802;4.336;2023-03-24T15:18:42;3.10;;;1.10;;
14470;SDS011;7321;50.802;4.336;2023-03-24T15:21:15;3.70;;;1.30;;
14470;SDS011;7321;50.802;4.336;2023-03-24T15:23:47;5.20;;;1.30;;
14470;SDS011;7321;50.802;4.336;2023-03-24T15:26:13;4.37;;;1.20;;
14470;SDS011;7321;50.802;4.336;2023-03-24T15:28:40;3.77;;;1.30;;
14470;SDS011;7321;50.802;4.336;2023-03-24T15:31:06;4.57;;;1.40;;
14470;SDS011;7321;50.802;4.336;2023-03-24T15:33:39;3.77;;;1.57;;
14470;SDS011;7321;50.802;4.336;2023-03-24T15:36:19;3.07;;;1.27;;
14470;SDS011;7321;50.802;4.336;2023-03-24T15:38:48;3.50;;;1.20;;
14470;SDS011;7321;50.802;4.336;2023-03-24T15:41:19;3.77;;;1.20;;
14470;SDS011;7321;50.802;4.336;2023-03-24T15:43:50;3.37;;;1.50;;
14470;SDS011;7321;50.802;4.336;2023-03-24T15:46:18;5.87;;;1.57;;
14470;SDS011;7321;50.802;4.336;2023-03-24T15:48:51;2.60;;;1.20;;
14470;SDS011;7321;50.802;4.336;2023-03-24T15:51:19;3.50;;;1.50;;
14470;SDS011;7321;50.802;4.336;2023-03-24T15:54:14;5.10;;;1.20;;
14470;SDS011;7321;50.802;4.336;2023-03-24T15:56:59;4.97;;;1.70;;
14470;SDS011;7321;50.802;4.336;2023-03-24T15:59:33;3.63;;;1.47;;
14470;SDS011;7321;50.802;4.336;2023-03-24T16:02:02;4.43;;;1.30;;
14470;SDS011;7321;50.802;4.336;2023-03-24T16:04:34;3.57;;;1.13;;
14470;SDS011;7321;50.802;4.336;2023-03-24T16:07:02;4.83;;;1.43;;
14470;SDS011;7321;50.802;4.336;2023-03-24T16:09:33;5.33;;;1.70;;
14470;SDS011;7321;50.802;4.336;2023-03-24T16:12:08;3.80;;;1.57;;
14470;SDS011;7321;50.802;4.336;2023-03-24T16:14:35;5.73;;;2.40;;
14470;SDS011;7321;50.802;4.336;2023-03-24T16:17:03;5.20;;;2.33;;
14470;SDS011;7321;50.802;4.336;2023-03-24T16:19:29;5.97;;;2.10;;
14470;SDS011;7321;50.802;4.336;2023-03-24T16:21:55;6.10;;;1.93;;
14470;SDS011;7321;50.802;4.336;2023-03-24T16:24:21;8.73;;;1.57;;
14470;SDS011;7321;50.802;4.336;2023-03-24T16:26:47;6.07;;;2.10;;
14470;SDS011;7321;50.802;4.336;2023-03-24T16:31:45;5.73;;;1.73;;
14470;SDS011;7321;50.802;4.336;2023-03-24T16:34:13;5.13;;;1.83;;
14470;SDS011;7321;50.802;4.336;2023-03-24T16:36:41;10.83;;;2.00;;
14470;SDS011;7321;50.802;4.336;2023-03-24T16:39:17;6.20;;;2.03;;
14470;SDS011;7321;50.802;4.336;2023-03-24T16:41:45;7.70;;;1.93;;
14470;SDS011;7321;50.802;4.336;2023-03-24T16:44:11;6.53;;;2.50;;
14470;SDS011;7321;50.802;4.336;2023-03-24T16:46:38;6.77;;;2.03;;
14470;SDS011;7321;50.802;4.336;2023-03-24T16:49:09;5.63;;;1.83;;
14470;SDS011;7321;50.802;4.336;2023-03-24T16:51:37;2.40;;;1.50;;
14470;SDS011;7321;50.802;4.336;2023-03-24T16:54:04;4.83;;;1.67;;
14470;SDS011;7321;50.802;4.336;2023-03-24T16:56:32;3.10;;;1.33;;
14470;SDS011;7321;50.802;4.336;2023-03-24T16:58:58;3.97;;;1.30;;
14470;SDS011;7321;50.802;4.336;2023-03-24T17:01:34;3.77;;;1.17;;
14470;SDS011;7321;50.802;4.336;2023-03-24T17:04:04;4.40;;;1.60;;
14470;SDS011;7321;50.802;4.336;2023-03-24T17:06:37;3.07;;;1.07;;
14470;SDS011;7321;50.802;4.336;2023-03-24T17:09:13;1.80;;;1.07;;
14470;SDS011;7321;50.802;4.336;2023-03-24T17:11:42;1.37;;;0.63;;
14470;SDS011;7321;50.802;4.336;2023-03-24T17:14:11;2.47;;;0.90;;
14470;SDS011;7321;50.802;4.336;2023-03-24T17:16:41;1.93;;;1.10;;
14470;SDS011;7321;50.802;4.336;2023-03-24T17:19:09;2.33;;;1.03;;
14470;SDS011;7321;50.802;4.336;2023-03-24T17:21:39;3.67;;;2.60;;
14470;SDS011;7321;50.802;4.336;2023-03-24T17:24:28;2.37;;;0.90;;
14470;SDS011;7321;50.802;4.336;2023-03-24T17:27:03;3.60;;;1.20;;
14470;SDS011;7321;50.802;4.336;2023-03-24T17:29:39;0.70;;;0.70;;
14470;SDS011;7321;50.802;4.336;2023-03-24T17:32:10;4.07;;;3.57;;
14470;SDS011;7321;50.802;4.336;2023-03-24T17:34:36;1.13;;;0.80;;
14470;SDS011;7321;50.802;4.336;2023-03-24T17:37:06;1.73;;;0.93;;
14470;SDS011;7321;50.802;4.336;2023-03-24T17:39:32;1.10;;;0.90;;
14470;SDS011;7321;50.802;4.336;2023-03-24T17:41:58;1.23;;;0.70;;
14470;SDS011;7321;50.802;4.336;2023-03-24T17:44:26;2.70;;;1.50;;
14470;SDS011;7321;50.802;4.336;2023-03-24T17:46:52;1.40;;;1.00;;
14470;SDS011;7321;50.802;4.336;2023-03-24T17:49:18;3.80;;;2.40;;
14470;SDS011;7321;50.802;4.336;2023-03-24T17:51:44;8.60;;;5.17;;
14470;SDS011;7321;50.802;4.336;2023-03-24T17:54:10;10.50;;;7.03;;
14470;SDS011;7321;50.802;4.336;2023-03-24T17:56:37;5.30;;;3.80;;
14470;SDS011;7321;50.802;4.336;2023-03-24T17:59:03;4.47;;;2.83;;
14470;SDS011;7321;50.802;4.336;2023-03-24T18:01:30;3.53;;;1.20;;
14470;SDS011;7321;50.802;4.336;2023-03-24T18:03:59;3.97;;;3.10;;
14470;SDS011;7321;50.802;4.336;2023-03-24T18:06:25;4.10;;;2.20;;
14470;SDS011;7321;50.802;4.336;2023-03-24T18:08:51;4.97;;;2.17;;
14470;SDS011;7321;50.802;4.336;2023-03-24T18:11:18;2.93;;;1.90;;
14470;SDS011;7321;50.802;4.336;2023-03-24T18:13:44;3.10;;;2.10;;
14470;SDS011;7321;50.802;4.336;2023-03-24T18:16:10;5.70;;;4.03;;
14470;SDS011;7321;50.802;4.336;2023-03-24T18:18:36;5.87;;;2.77;;
14470;SDS011;7321;50.802;4.336;2023-03-24T18:21:03;5.07;;;3.23;;
14470;SDS011;7321;50.802;4.336;2023-03-24T18:23:32;6.93;;;3.63;;